sensor_id;sensor_type;location;lat;lon;timestamp;P1;durP1;ratioP1;P2;durP2;ratioP2
69083;SDS011;56185;48.526;9.044;2022-12-07T00:00:53;6.53;;;4.78;;
69083;SDS011;56185;48.526;9.044;2022-12-07T00:03:19;6.95;;;5.00;;
69083;SDS011;56185;48.526;9.044;2022-12-07T00:05:44;9.02;;;5.53;;
69083;SDS011;56185;48.526;9.044;2022-12-07T00:08:09;8.07;;;5.00;;
69083;SDS011;56185;48.526;9.044;2022-12-07T00:10:34;6.70;;;5.00;;
69083;SDS011;56185;48.526;9.044;2022-12-07T00:13:00;7.35;;;5.00;;
69083;SDS011;56185;48.526;9.044;2022-12-07T00:15:25;6.53;;;5.07;;
69083;SDS011;56185;48.526;9.044;2022-12-07T00:17:51;7.07;;;4.50;;
69083;SDS011;56185;48.526;9.044;2022-12-07T00:20:16;7.00;;;4.57;;
69083;SDS011;56185;48.526;9.044;2022-12-07T00:22:42;7.40;;;4.45;;
69083;SDS011;56185;48.526;9.044;2022-12-07T00:25:07;7.47;;;4.78;;
69083;SDS011;56185;48.526;9.044;2022-12-07T00:27:32;7.65;;;4.90;;
69083;SDS011;56185;48.526;9.044;2022-12-07T00:29:57;7.45;;;4.95;;
69083;SDS011;56185;48.526;9.044;2022-12-07T00:32:23;8.77;;;5.10;;
69083;SDS011;56185;48.526;9.044;2022-12-07T00:34:48;7.57;;;4.53;;
69083;SDS011;56185;48.526;9.044;2022-12-07T00:37:13;7.67;;;4.77;;
69083;SDS011;56185;48.526;9.044;2022-12-07T00:39:38;7.38;;;4.75;;
69083;SDS011;56185;48.526;9.044;2022-12-07T00:42:04;8.17;;;5.03;;
69083;SDS011;56185;48.526;9.044;2022-12-07T00:44:29;9.30;;;5.47;;
69083;SDS011;56185;48.526;9.044;2022-12-07T00:46:54;8.00;;;5.50;;
69083;SDS011;56185;48.526;9.044;2022-12-07T00:49:19;7.82;;;5.35;;
69083;SDS011;56185;48.526;9.044;2022-12-07T00:51:45;7.35;;;4.80;;
69083;SDS011;56185;48.526;9.044;2022-12-07T00:54:16;7.10;;;4.70;;
69083;SDS011;56185;48.526;9.044;2022-12-07T00:56:41;6.50;;;4.53;;
69083;SDS011;56185;48.526;9.044;2022-12-07T00:59:07;6.88;;;4.85;;
69083;SDS011;56185;48.526;9.044;2022-12-07T01:01:33;6.95;;;4.68;;
69083;SDS011;56185;48.526;9.044;2022-12-07T01:04:00;7.00;;;4.75;;
69083;SDS011;56185;48.526;9.044;2022-12-07T01:06:26;6.82;;;4.47;;
69083;SDS011;56185;48.526;9.044;2022-12-07T01:08:52;7.68;;;4.93;;
69083;SDS011;56185;48.526;9.044;2022-12-07T01:11:20;6.03;;;4.68;;
69083;SDS011;56185;48.526;9.044;2022-12-07T01:13:49;6.53;;;4.47;;
69083;SDS011;56185;48.526;9.044;2022-12-07T01:16:16;6.15;;;4.53;;
69083;SDS011;56185;48.526;9.044;2022-12-07T01:18:42;8.00;;;5.13;;
69083;SDS011;56185;48.526;9.044;2022-12-07T01:23:44;7.05;;;4.80;;
69083;SDS011;56185;48.526;9.044;2022-12-07T01:26:11;6.82;;;4.90;;
69083;SDS011;56185;48.526;9.044;2022-12-07T01:28:38;6.07;;;4.28;;
69083;SDS011;56185;48.526;9.044;2022-12-07T01:31:05;7.25;;;4.78;;
69083;SDS011;56185;48.526;9.044;2022-12-07T01:33:33;7.25;;;5.07;;
69083;SDS011;56185;48.526;9.044;2022-12-07T01:36:03;6.63;;;4.75;;
69083;SDS011;56185;48.526;9.044;2022-12-07T01:38:30;6.47;;;4.65;;
69083;SDS011;56185;48.526;9.044;2022-12-07T01:40:56;8.65;;;5.18;;
69083;SDS011;56185;48.526;9.044;2022-12-07T01:43:24;7.10;;;4.75;;
69083;SDS011;56185;48.526;9.044;2022-12-07T01:45:51;7.47;;;4.65;;
69083;SDS011;56185;48.526;9.044;2022-12-07T01:48:17;6.45;;;4.63;;
69083;SDS011;56185;48.526;9.044;2022-12-07T01:50:47;6.63;;;4.20;;
69083;SDS011;56185;48.526;9.044;2022-12-07T01:53:19;7.65;;;4.53;;
69083;SDS011;56185;48.526;9.044;2022-12-07T01:55:47;6.45;;;4.35;;
69083;SDS011;56185;48.526;9.044;2022-12-07T01:58:14;7.72;;;4.82;;
69083;SDS011;56185;48.526;9.044;2022-12-07T02:00:41;6.60;;;4.32;;
69083;SDS011;56185;48.526;9.044;2022-12-07T02:03:11;6.68;;;4.50;;
69083;SDS011;56185;48.526;9.044;2022-12-07T02:05:42;7.50;;;5.15;;
69083;SDS011;56185;48.526;9.044;2022-12-07T02:08:08;6.90;;;4.80;;
69083;SDS011;56185;48.526;9.044;2022-12-07T02:10:35;6.97;;;4.85;;
69083;SDS011;56185;48.526;9.044;2022-12-07T02:13:16;7.18;;;4.93;;
69083;SDS011;56185;48.526;9.044;2022-12-07T02:15:55;7.28;;;4.82;;
69083;SDS011;56185;48.526;9.044;2022-12-07T02:24:30;7.15;;;4.70;;
69083;SDS011;56185;48.526;9.044;2022-12-07T02:30:13;7.95;;;5.18;;
69083;SDS011;56185;48.526;9.044;2022-12-07T02:35:16;7.45;;;5.00;;
69083;SDS011;56185;48.526;9.044;2022-12-07T02:37:48;7.80;;;5.10;;
69083;SDS011;56185;48.526;9.044;2022-12-07T02:40:38;11.13;;;5.22;;
69083;SDS011;56185;48.526;9.044;2022-12-07T02:43:09;9.23;;;5.07;;
69083;SDS011;56185;48.526;9.044;2022-12-07T02:45:39;7.45;;;5.07;;
69083;SDS011;56185;48.526;9.044;2022-12-07T02:48:07;8.10;;;5.07;;
69083;SDS011;56185;48.526;9.044;2022-12-07T02:50:34;7.45;;;4.78;;
69083;SDS011;56185;48.526;9.044;2022-12-07T02:52:59;7.05;;;5.20;;
69083;SDS011;56185;48.526;9.044;2022-12-07T02:55:26;8.20;;;5.38;;
69083;SDS011;56185;48.526;9.044;2022-12-07T03:00:27;6.35;;;4.35;;
69083;SDS011;56185;48.526;9.044;2022-12-07T03:03:06;5.97;;;4.30;;
69083;SDS011;56185;48.526;9.044;2022-12-07T03:05:40;7.20;;;4.22;;
69083;SDS011;56185;48.526;9.044;2022-12-07T03:08:42;5.40;;;3.88;;
69083;SDS011;56185;48.526;9.044;2022-12-07T03:11:37;6.00;;;4.43;;
69083;SDS011;56185;48.526;9.044;2022-12-07T03:14:09;7.90;;;4.07;;
69083;SDS011;56185;48.526;9.044;2022-12-07T03:16:43;5.00;;;3.72;;
69083;SDS011;56185;48.526;9.044;2022-12-07T03:19:16;6.03;;;4.15;;
69083;SDS011;56185;48.526;9.044;2022-12-07T03:21:45;7.18;;;4.28;;
69083;SDS011;56185;48.526;9.044;2022-12-07T03:24:15;6.70;;;4.35;;
69083;SDS011;56185;48.526;9.044;2022-12-07T03:26:49;5.72;;;3.90;;
69083;SDS011;56185;48.526;9.044;2022-12-07T03:29:25;7.25;;;4.60;;
69083;SDS011;56185;48.526;9.044;2022-12-07T03:31:55;6.28;;;4.22;;
69083;SDS011;56185;48.526;9.044;2022-12-07T03:34:48;6.15;;;4.32;;
69083;SDS011;56185;48.526;9.044;2022-12-07T03:37:34;7.43;;;4.95;;
69083;SDS011;56185;48.526;9.044;2022-12-07T03:40:08;6.45;;;4.60;;
69083;SDS011;56185;48.526;9.044;2022-12-07T03:42:43;7.05;;;4.80;;
69083;SDS011;56185;48.526;9.044;2022-12-07T03:45:08;9.35;;;4.90;;
69083;SDS011;56185;48.526;9.044;2022-12-07T03:47:37;6.50;;;4.55;;
69083;SDS011;56185;48.526;9.044;2022-12-07T03:50:12;6.65;;;4.40;;
69083;SDS011;56185;48.526;9.044;2022-12-07T03:52:52;6.57;;;4.55;;
69083;SDS011;56185;48.526;9.044;2022-12-07T03:55:22;7.80;;;4.35;;
69083;SDS011;56185;48.526;9.044;2022-12-07T03:57:53;6.88;;;4.63;;
69083;SDS011;56185;48.526;9.044;2022-12-07T04:00:23;6.07;;;4.43;;
69083;SDS011;56185;48.526;9.044;2022-12-07T04:02:51;7.40;;;5.03;;
69083;SDS011;56185;48.526;9.044;2022-12-07T04:05:17;7.15;;;4.97;;
69083;SDS011;56185;48.526;9.044;2022-12-07T04:07:43;9.82;;;4.93;;
69083;SDS011;56185;48.526;9.044;2022-12-07T04:10:08;7.47;;;4.75;;
69083;SDS011;56185;48.526;9.044;2022-12-07T04:12:34;7.93;;;4.95;;
69083;SDS011;56185;48.526;9.044;2022-12-07T04:14:59;8.67;;;5.47;;
69083;SDS011;56185;48.526;9.044;2022-12-07T04:17:24;6.78;;;4.53;;
69083;SDS011;56185;48.526;9.044;2022-12-07T04:19:49;7.30;;;4.57;;
69083;SDS011;56185;48.526;9.044;2022-12-07T04:22:15;8.27;;;5.18;;
69083;SDS011;56185;48.526;9.044;2022-12-07T04:24:40;6.72;;;4.55;;
69083;SDS011;56185;48.526;9.044;2022-12-07T04:27:05;8.00;;;4.57;;
69083;SDS011;56185;48.526;9.044;2022-12-07T04:29:31;7.03;;;5.00;;
69083;SDS011;56185;48.526;9.044;2022-12-07T04:31:56;7.83;;;5.47;;
69083;SDS011;56185;48.526;9.044;2022-12-07T04:34:21;7.65;;;5.15;;
69083;SDS011;56185;48.526;9.044;2022-12-07T04:36:47;7.82;;;4.80;;
69083;SDS011;56185;48.526;9.044;2022-12-07T04:39:17;7.40;;;5.35;;
69083;SDS011;56185;48.526;9.044;2022-12-07T04:41:53;8.63;;;5.75;;
69083;SDS011;56185;48.526;9.044;2022-12-07T04:44:19;9.27;;;5.32;;
69083;SDS011;56185;48.526;9.044;2022-12-07T04:46:45;8.05;;;5.57;;
69083;SDS011;56185;48.526;9.044;2022-12-07T04:49:11;8.80;;;5.43;;
69083;SDS011;56185;48.526;9.044;2022-12-07T04:51:37;7.47;;;4.93;;
69083;SDS011;56185;48.526;9.044;2022-12-07T04:54:02;11.15;;;5.32;;
69083;SDS011;56185;48.526;9.044;2022-12-07T04:56:28;8.90;;;5.63;;
69083;SDS011;56185;48.526;9.044;2022-12-07T04:58:53;8.48;;;5.32;;
69083;SDS011;56185;48.526;9.044;2022-12-07T05:01:19;8.07;;;5.25;;
69083;SDS011;56185;48.526;9.044;2022-12-07T05:03:45;7.32;;;5.00;;
69083;SDS011;56185;48.526;9.044;2022-12-07T05:06:11;7.30;;;4.88;;
69083;SDS011;56185;48.526;9.044;2022-12-07T05:08:37;7.03;;;4.88;;
69083;SDS011;56185;48.526;9.044;2022-12-07T05:11:02;8.05;;;5.20;;
69083;SDS011;56185;48.526;9.044;2022-12-07T05:13:29;7.35;;;4.85;;
69083;SDS011;56185;48.526;9.044;2022-12-07T05:15:54;7.30;;;4.97;;
69083;SDS011;56185;48.526;9.044;2022-12-07T05:18:19;8.98;;;5.25;;
69083;SDS011;56185;48.526;9.044;2022-12-07T05:20:46;7.70;;;5.22;;
69083;SDS011;56185;48.526;9.044;2022-12-07T05:23:13;6.45;;;4.38;;
69083;SDS011;56185;48.526;9.044;2022-12-07T05:25:39;9.90;;;6.15;;
69083;SDS011;56185;48.526;9.044;2022-12-07T05:28:04;9.20;;;5.82;;
69083;SDS011;56185;48.526;9.044;2022-12-07T05:30:30;7.05;;;4.72;;
69083;SDS011;56185;48.526;9.044;2022-12-07T05:32:56;8.52;;;5.43;;
69083;SDS011;56185;48.526;9.044;2022-12-07T05:35:22;8.80;;;5.85;;
69083;SDS011;56185;48.526;9.044;2022-12-07T05:37:47;7.97;;;4.88;;
69083;SDS011;56185;48.526;9.044;2022-12-07T05:40:12;7.65;;;5.20;;
69083;SDS011;56185;48.526;9.044;2022-12-07T05:42:38;7.55;;;4.88;;
69083;SDS011;56185;48.526;9.044;2022-12-07T05:45:04;6.70;;;4.50;;
69083;SDS011;56185;48.526;9.044;2022-12-07T05:47:30;7.47;;;4.57;;
69083;SDS011;56185;48.526;9.044;2022-12-07T05:49:55;7.20;;;4.32;;
69083;SDS011;56185;48.526;9.044;2022-12-07T05:52:21;6.80;;;4.60;;
69083;SDS011;56185;48.526;9.044;2022-12-07T05:54:46;7.07;;;4.53;;
69083;SDS011;56185;48.526;9.044;2022-12-07T05:57:11;7.40;;;4.63;;
69083;SDS011;56185;48.526;9.044;2022-12-07T05:59:36;7.70;;;4.82;;
69083;SDS011;56185;48.526;9.044;2022-12-07T06:04:32;9.55;;;5.38;;
69083;SDS011;56185;48.526;9.044;2022-12-07T06:06:59;8.57;;;5.40;;
69083;SDS011;56185;48.526;9.044;2022-12-07T06:09:25;8.93;;;5.63;;
69083;SDS011;56185;48.526;9.044;2022-12-07T06:11:52;8.77;;;5.43;;
69083;SDS011;56185;48.526;9.044;2022-12-07T06:14:17;9.75;;;5.82;;
69083;SDS011;56185;48.526;9.044;2022-12-07T06:16:43;9.02;;;5.22;;
69083;SDS011;56185;48.526;9.044;2022-12-07T06:19:08;9.15;;;5.47;;
69083;SDS011;56185;48.526;9.044;2022-12-07T06:21:33;9.20;;;5.82;;
69083;SDS011;56185;48.526;9.044;2022-12-07T06:23:58;7.28;;;5.05;;
69083;SDS011;56185;48.526;9.044;2022-12-07T06:26:24;7.07;;;4.72;;
69083;SDS011;56185;48.526;9.044;2022-12-07T06:28:49;7.28;;;4.40;;
69083;SDS011;56185;48.526;9.044;2022-12-07T06:31:14;6.80;;;4.40;;
69083;SDS011;56185;48.526;9.044;2022-12-07T06:33:40;7.65;;;4.80;;
69083;SDS011;56185;48.526;9.044;2022-12-07T06:36:06;7.68;;;4.07;;
69083;SDS011;56185;48.526;9.044;2022-12-07T06:38:32;5.82;;;3.83;;
69083;SDS011;56185;48.526;9.044;2022-12-07T06:40:57;6.45;;;4.22;;
69083;SDS011;56185;48.526;9.044;2022-12-07T06:45:50;9.50;;;5.30;;
69083;SDS011;56185;48.526;9.044;2022-12-07T06:48:15;8.98;;;6.30;;
69083;SDS011;56185;48.526;9.044;2022-12-07T06:50:40;9.50;;;5.47;;
69083;SDS011;56185;48.526;9.044;2022-12-07T06:53:06;12.23;;;6.63;;
69083;SDS011;56185;48.526;9.044;2022-12-07T06:55:31;9.82;;;5.72;;
69083;SDS011;56185;48.526;9.044;2022-12-07T06:57:56;8.10;;;5.63;;
69083;SDS011;56185;48.526;9.044;2022-12-07T07:00:21;9.43;;;5.65;;
69083;SDS011;56185;48.526;9.044;2022-12-07T07:02:47;10.85;;;6.10;;
69083;SDS011;56185;48.526;9.044;2022-12-07T07:05:12;10.50;;;6.30;;
69083;SDS011;56185;48.526;9.044;2022-12-07T07:07:37;10.07;;;5.70;;
69083;SDS011;56185;48.526;9.044;2022-12-07T07:10:03;8.82;;;5.32;;
69083;SDS011;56185;48.526;9.044;2022-12-07T07:12:28;9.95;;;5.57;;
69083;SDS011;56185;48.526;9.044;2022-12-07T07:14:53;8.70;;;5.57;;
69083;SDS011;56185;48.526;9.044;2022-12-07T07:17:19;10.83;;;6.30;;
69083;SDS011;56185;48.526;9.044;2022-12-07T07:19:44;11.65;;;6.22;;
69083;SDS011;56185;48.526;9.044;2022-12-07T07:22:09;12.65;;;7.40;;
69083;SDS011;56185;48.526;9.044;2022-12-07T07:24:34;11.10;;;6.38;;
69083;SDS011;56185;48.526;9.044;2022-12-07T07:27:00;10.88;;;6.55;;
69083;SDS011;56185;48.526;9.044;2022-12-07T07:29:25;10.18;;;6.15;;
69083;SDS011;56185;48.526;9.044;2022-12-07T07:31:50;10.25;;;5.78;;
69083;SDS011;56185;48.526;9.044;2022-12-07T07:34:15;10.10;;;6.20;;
69083;SDS011;56185;48.526;9.044;2022-12-07T07:36:41;9.48;;;5.85;;
69083;SDS011;56185;48.526;9.044;2022-12-07T07:39:06;11.50;;;6.60;;
69083;SDS011;56185;48.526;9.044;2022-12-07T07:41:32;9.35;;;6.30;;
69083;SDS011;56185;48.526;9.044;2022-12-07T07:43:57;10.07;;;6.28;;
69083;SDS011;56185;48.526;9.044;2022-12-07T07:46:22;10.52;;;6.40;;
69083;SDS011;56185;48.526;9.044;2022-12-07T07:48:48;9.43;;;6.03;;
69083;SDS011;56185;48.526;9.044;2022-12-07T07:51:13;9.43;;;6.18;;
69083;SDS011;56185;48.526;9.044;2022-12-07T07:53:38;8.77;;;5.80;;
69083;SDS011;56185;48.526;9.044;2022-12-07T07:56:03;10.82;;;6.57;;
69083;SDS011;56185;48.526;9.044;2022-12-07T07:58:29;11.30;;;6.63;;
69083;SDS011;56185;48.526;9.044;2022-12-07T08:00:54;10.75;;;6.22;;
69083;SDS011;56185;48.526;9.044;2022-12-07T08:03:19;10.60;;;6.75;;
69083;SDS011;56185;48.526;9.044;2022-12-07T08:05:44;10.55;;;6.32;;
69083;SDS011;56185;48.526;9.044;2022-12-07T08:08:10;11.65;;;6.70;;
69083;SDS011;56185;48.526;9.044;2022-12-07T08:10:35;10.32;;;7.10;;
69083;SDS011;56185;48.526;9.044;2022-12-07T08:13:00;11.17;;;6.93;;
69083;SDS011;56185;48.526;9.044;2022-12-07T08:15:29;11.55;;;6.90;;
69083;SDS011;56185;48.526;9.044;2022-12-07T08:17:55;11.60;;;6.93;;
69083;SDS011;56185;48.526;9.044;2022-12-07T08:20:20;10.55;;;6.68;;
69083;SDS011;56185;48.526;9.044;2022-12-07T08:22:46;11.88;;;6.90;;
69083;SDS011;56185;48.526;9.044;2022-12-07T08:25:11;10.17;;;6.83;;
69083;SDS011;56185;48.526;9.044;2022-12-07T08:27:36;13.02;;;7.15;;
69083;SDS011;56185;48.526;9.044;2022-12-07T08:30:02;12.98;;;8.00;;
69083;SDS011;56185;48.526;9.044;2022-12-07T08:32:27;10.75;;;7.53;;
69083;SDS011;56185;48.526;9.044;2022-12-07T08:34:53;12.70;;;7.70;;
69083;SDS011;56185;48.526;9.044;2022-12-07T08:37:18;10.67;;;6.70;;
69083;SDS011;56185;48.526;9.044;2022-12-07T08:39:43;13.67;;;7.93;;
69083;SDS011;56185;48.526;9.044;2022-12-07T08:42:08;11.67;;;6.90;;
69083;SDS011;56185;48.526;9.044;2022-12-07T08:44:33;15.40;;;7.37;;
69083;SDS011;56185;48.526;9.044;2022-12-07T08:47:00;12.20;;;7.80;;
69083;SDS011;56185;48.526;9.044;2022-12-07T08:50:02;10.90;;;7.20;;
69083;SDS011;56185;48.526;9.044;2022-12-07T08:52:20;11.25;;;7.40;;
69083;SDS011;56185;48.526;9.044;2022-12-07T08:54:46;14.25;;;7.15;;
69083;SDS011;56185;48.526;9.044;2022-12-07T08:57:11;12.15;;;7.47;;
69083;SDS011;56185;48.526;9.044;2022-12-07T08:59:37;11.95;;;7.13;;
69083;SDS011;56185;48.526;9.044;2022-12-07T09:02:03;12.68;;;7.35;;
69083;SDS011;56185;48.526;9.044;2022-12-07T09:04:29;10.93;;;6.90;;
69083;SDS011;56185;48.526;9.044;2022-12-07T09:06:54;12.25;;;6.93;;
69083;SDS011;56185;48.526;9.044;2022-12-07T09:09:20;9.82;;;6.82;;
69083;SDS011;56185;48.526;9.044;2022-12-07T09:11:45;11.57;;;6.65;;
69083;SDS011;56185;48.526;9.044;2022-12-07T09:14:11;12.48;;;7.13;;
69083;SDS011;56185;48.526;9.044;2022-12-07T09:16:37;10.18;;;6.55;;
69083;SDS011;56185;48.526;9.044;2022-12-07T09:19:02;10.40;;;7.03;;
69083;SDS011;56185;48.526;9.044;2022-12-07T09:21:28;9.90;;;6.32;;
69083;SDS011;56185;48.526;9.044;2022-12-07T09:23:53;9.40;;;6.20;;
69083;SDS011;56185;48.526;9.044;2022-12-07T09:26:19;11.95;;;6.40;;
69083;SDS011;56185;48.526;9.044;2022-12-07T09:28:44;10.90;;;6.20;;
69083;SDS011;56185;48.526;9.044;2022-12-07T09:31:10;10.13;;;6.15;;
69083;SDS011;56185;48.526;9.044;2022-12-07T09:33:35;9.45;;;5.95;;
69083;SDS011;56185;48.526;9.044;2022-12-07T09:36:00;8.45;;;5.82;;
69083;SDS011;56185;48.526;9.044;2022-12-07T09:38:26;10.95;;;6.57;;
69083;SDS011;56185;48.526;9.044;2022-12-07T09:40:51;12.50;;;6.50;;
69083;SDS011;56185;48.526;9.044;2022-12-07T09:43:18;9.60;;;6.72;;
69083;SDS011;56185;48.526;9.044;2022-12-07T09:45:47;10.48;;;6.05;;
69083;SDS011;56185;48.526;9.044;2022-12-07T09:48:18;9.05;;;5.85;;
69083;SDS011;56185;48.526;9.044;2022-12-07T09:51:02;8.80;;;6.05;;
69083;SDS011;56185;48.526;9.044;2022-12-07T09:53:37;9.57;;;5.97;;
69083;SDS011;56185;48.526;9.044;2022-12-07T09:56:04;8.52;;;6.15;;
69083;SDS011;56185;48.526;9.044;2022-12-07T09:58:30;8.57;;;5.50;;
69083;SDS011;56185;48.526;9.044;2022-12-07T10:01:04;8.98;;;5.70;;
69083;SDS011;56185;48.526;9.044;2022-12-07T10:03:37;9.30;;;6.15;;
69083;SDS011;56185;48.526;9.044;2022-12-07T10:06:05;10.82;;;6.20;;
69083;SDS011;56185;48.526;9.044;2022-12-07T10:08:32;10.65;;;6.85;;
69083;SDS011;56185;48.526;9.044;2022-12-07T10:10:58;11.35;;;5.70;;
69083;SDS011;56185;48.526;9.044;2022-12-07T10:18:49;8.48;;;5.85;;
69083;SDS011;56185;48.526;9.044;2022-12-07T10:21:18;9.73;;;5.40;;
69083;SDS011;56185;48.526;9.044;2022-12-07T10:24:04;9.73;;;6.05;;
69083;SDS011;56185;48.526;9.044;2022-12-07T10:26:50;10.32;;;5.57;;
69083;SDS011;56185;48.526;9.044;2022-12-07T10:29:21;8.63;;;5.50;;
69083;SDS011;56185;48.526;9.044;2022-12-07T10:31:52;8.82;;;5.60;;
69083;SDS011;56185;48.526;9.044;2022-12-07T10:34:25;7.47;;;5.22;;
69083;SDS011;56185;48.526;9.044;2022-12-07T10:36:53;8.93;;;5.22;;
69083;SDS011;56185;48.526;9.044;2022-12-07T10:39:31;7.55;;;5.00;;
69083;SDS011;56185;48.526;9.044;2022-12-07T10:42:09;9.57;;;5.40;;
69083;SDS011;56185;48.526;9.044;2022-12-07T10:44:41;7.22;;;4.95;;
69083;SDS011;56185;48.526;9.044;2022-12-07T10:47:29;9.32;;;5.25;;
69083;SDS011;56185;48.526;9.044;2022-12-07T11:02:21;8.57;;;5.40;;
69083;SDS011;56185;48.526;9.044;2022-12-07T11:04:59;8.38;;;4.80;;
69083;SDS011;56185;48.526;9.044;2022-12-07T11:07:38;10.45;;;5.50;;
69083;SDS011;56185;48.526;9.044;2022-12-07T11:15:47;6.57;;;4.80;;
69083;SDS011;56185;48.526;9.044;2022-12-07T11:21:45;6.53;;;4.63;;
69083;SDS011;56185;48.526;9.044;2022-12-07T11:24:17;7.70;;;5.18;;
69083;SDS011;56185;48.526;9.044;2022-12-07T11:26:57;9.10;;;5.00;;
69083;SDS011;56185;48.526;9.044;2022-12-07T11:32:49;8.02;;;5.15;;
69083;SDS011;56185;48.526;9.044;2022-12-07T11:35:39;7.28;;;4.60;;
69083;SDS011;56185;48.526;9.044;2022-12-07T11:38:15;8.60;;;5.22;;
69083;SDS011;56185;48.526;9.044;2022-12-07T11:40:43;7.25;;;4.75;;
69083;SDS011;56185;48.526;9.044;2022-12-07T11:46:12;7.68;;;4.85;;
69083;SDS011;56185;48.526;9.044;2022-12-07T11:51:11;7.63;;;5.18;;
69083;SDS011;56185;48.526;9.044;2022-12-07T11:56:14;7.30;;;4.93;;
69083;SDS011;56185;48.526;9.044;2022-12-07T12:03:40;7.55;;;4.82;;
69083;SDS011;56185;48.526;9.044;2022-12-07T12:06:09;8.80;;;5.28;;
69083;SDS011;56185;48.526;9.044;2022-12-07T12:08:36;7.50;;;5.13;;
69083;SDS011;56185;48.526;9.044;2022-12-07T12:22:37;7.75;;;4.22;;
69083;SDS011;56185;48.526;9.044;2022-12-07T12:25:06;9.52;;;4.97;;
69083;SDS011;56185;48.526;9.044;2022-12-07T12:27:40;8.63;;;6.05;;
69083;SDS011;56185;48.526;9.044;2022-12-07T12:30:25;8.52;;;4.75;;
69083;SDS011;56185;48.526;9.044;2022-12-07T12:32:51;7.07;;;4.47;;
69083;SDS011;56185;48.526;9.044;2022-12-07T12:37:52;7.93;;;4.95;;
69083;SDS011;56185;48.526;9.044;2022-12-07T12:42:53;7.80;;;4.88;;
69083;SDS011;56185;48.526;9.044;2022-12-07T12:45:23;6.55;;;4.65;;
69083;SDS011;56185;48.526;9.044;2022-12-07T12:47:53;6.85;;;4.50;;
69083;SDS011;56185;48.526;9.044;2022-12-07T12:50:26;6.88;;;4.43;;
69083;SDS011;56185;48.526;9.044;2022-12-07T12:52:55;8.35;;;4.70;;
69083;SDS011;56185;48.526;9.044;2022-12-07T13:00:49;6.68;;;4.72;;
69083;SDS011;56185;48.526;9.044;2022-12-07T13:03:52;6.35;;;4.57;;
69083;SDS011;56185;48.526;9.044;2022-12-07T13:08:49;6.95;;;4.88;;
69083;SDS011;56185;48.526;9.044;2022-12-07T13:11:19;7.38;;;4.85;;
69083;SDS011;56185;48.526;9.044;2022-12-07T13:13:56;6.72;;;4.57;;
69083;SDS011;56185;48.526;9.044;2022-12-07T13:17:02;8.10;;;5.15;;
69083;SDS011;56185;48.526;9.044;2022-12-07T13:19:53;8.27;;;4.78;;
69083;SDS011;56185;48.526;9.044;2022-12-07T13:24:57;6.97;;;4.35;;
69083;SDS011;56185;48.526;9.044;2022-12-07T13:27:28;7.95;;;4.80;;
69083;SDS011;56185;48.526;9.044;2022-12-07T13:29:56;7.97;;;5.05;;
69083;SDS011;56185;48.526;9.044;2022-12-07T13:32:28;7.30;;;4.45;;
69083;SDS011;56185;48.526;9.044;2022-12-07T13:34:55;7.75;;;5.32;;
69083;SDS011;56185;48.526;9.044;2022-12-07T13:37:30;7.38;;;4.63;;
69083;SDS011;56185;48.526;9.044;2022-12-07T13:39:58;8.65;;;4.95;;
69083;SDS011;56185;48.526;9.044;2022-12-07T13:42:29;8.65;;;4.90;;
69083;SDS011;56185;48.526;9.044;2022-12-07T13:44:57;7.22;;;4.70;;
69083;SDS011;56185;48.526;9.044;2022-12-07T13:50:24;9.50;;;4.88;;
69083;SDS011;56185;48.526;9.044;2022-12-07T13:52:54;6.75;;;5.10;;
69083;SDS011;56185;48.526;9.044;2022-12-07T13:55:21;6.97;;;4.80;;
69083;SDS011;56185;48.526;9.044;2022-12-07T13:57:47;10.23;;;4.70;;
69083;SDS011;56185;48.526;9.044;2022-12-07T14:05:36;8.27;;;4.40;;
69083;SDS011;56185;48.526;9.044;2022-12-07T14:08:06;8.00;;;4.93;;
69083;SDS011;56185;48.526;9.044;2022-12-07T14:13:26;7.47;;;4.40;;
69083;SDS011;56185;48.526;9.044;2022-12-07T14:15:55;7.35;;;4.75;;
69083;SDS011;56185;48.526;9.044;2022-12-07T14:18:36;6.55;;;4.35;;
69083;SDS011;56185;48.526;9.044;2022-12-07T14:23:34;7.82;;;4.43;;
69083;SDS011;56185;48.526;9.044;2022-12-07T14:26:15;7.30;;;4.57;;
69083;SDS011;56185;48.526;9.044;2022-12-07T14:28:45;7.45;;;4.57;;
69083;SDS011;56185;48.526;9.044;2022-12-07T14:31:17;6.00;;;4.07;;
69083;SDS011;56185;48.526;9.044;2022-12-07T14:33:45;6.47;;;4.10;;
69083;SDS011;56185;48.526;9.044;2022-12-07T14:36:13;7.00;;;4.13;;
69083;SDS011;56185;48.526;9.044;2022-12-07T14:38:39;7.03;;;4.10;;
69083;SDS011;56185;48.526;9.044;2022-12-07T14:41:06;7.93;;;4.40;;
69083;SDS011;56185;48.526;9.044;2022-12-07T14:43:38;7.25;;;4.30;;
69083;SDS011;56185;48.526;9.044;2022-12-07T14:46:03;6.83;;;4.30;;
69083;SDS011;56185;48.526;9.044;2022-12-07T14:48:28;7.10;;;4.30;;
69083;SDS011;56185;48.526;9.044;2022-12-07T14:50:54;5.67;;;3.90;;
69083;SDS011;56185;48.526;9.044;2022-12-07T14:53:21;5.10;;;3.38;;
69083;SDS011;56185;48.526;9.044;2022-12-07T14:55:53;5.80;;;3.38;;
69083;SDS011;56185;48.526;9.044;2022-12-07T14:58:18;4.68;;;3.58;;
69083;SDS011;56185;48.526;9.044;2022-12-07T15:00:44;5.03;;;3.37;;
69083;SDS011;56185;48.526;9.044;2022-12-07T15:03:09;5.78;;;4.10;;
69083;SDS011;56185;48.526;9.044;2022-12-07T15:05:35;7.63;;;3.90;;
69083;SDS011;56185;48.526;9.044;2022-12-07T15:08:01;4.63;;;3.50;;
69083;SDS011;56185;48.526;9.044;2022-12-07T15:10:28;5.80;;;4.05;;
69083;SDS011;56185;48.526;9.044;2022-12-07T15:12:55;4.75;;;3.30;;
69083;SDS011;56185;48.526;9.044;2022-12-07T15:15:21;7.45;;;3.28;;
69083;SDS011;56185;48.526;9.044;2022-12-07T15:17:46;4.73;;;3.33;;
69083;SDS011;56185;48.526;9.044;2022-12-07T15:20:12;4.90;;;3.57;;
69083;SDS011;56185;48.526;9.044;2022-12-07T15:22:39;4.70;;;3.15;;
69083;SDS011;56185;48.526;9.044;2022-12-07T15:25:04;4.43;;;2.75;;
69083;SDS011;56185;48.526;9.044;2022-12-07T15:27:30;3.78;;;2.70;;
69083;SDS011;56185;48.526;9.044;2022-12-07T15:29:55;4.38;;;2.83;;
69083;SDS011;56185;48.526;9.044;2022-12-07T15:32:21;4.75;;;2.80;;
69083;SDS011;56185;48.526;9.044;2022-12-07T15:34:46;5.43;;;2.80;;
69083;SDS011;56185;48.526;9.044;2022-12-07T15:37:11;4.00;;;2.70;;
69083;SDS011;56185;48.526;9.044;2022-12-07T15:39:36;4.73;;;2.63;;
69083;SDS011;56185;48.526;9.044;2022-12-07T15:42:02;3.85;;;2.58;;
69083;SDS011;56185;48.526;9.044;2022-12-07T15:44:27;5.95;;;2.50;;
69083;SDS011;56185;48.526;9.044;2022-12-07T15:46:52;3.53;;;2.50;;
69083;SDS011;56185;48.526;9.044;2022-12-07T15:49:18;4.37;;;2.63;;
69083;SDS011;56185;48.526;9.044;2022-12-07T15:51:44;3.90;;;2.70;;
69083;SDS011;56185;48.526;9.044;2022-12-07T15:54:26;3.53;;;2.70;;
69083;SDS011;56185;48.526;9.044;2022-12-07T15:56:53;4.03;;;2.63;;
69083;SDS011;56185;48.526;9.044;2022-12-07T15:59:19;4.25;;;2.63;;
69083;SDS011;56185;48.526;9.044;2022-12-07T16:01:44;2.97;;;2.28;;
69083;SDS011;56185;48.526;9.044;2022-12-07T16:04:09;4.07;;;2.40;;
69083;SDS011;56185;48.526;9.044;2022-12-07T16:06:35;4.10;;;2.85;;
69083;SDS011;56185;48.526;9.044;2022-12-07T16:09:00;3.87;;;2.67;;
69083;SDS011;56185;48.526;9.044;2022-12-07T16:11:26;3.90;;;2.92;;
69083;SDS011;56185;48.526;9.044;2022-12-07T16:13:51;3.10;;;2.63;;
69083;SDS011;56185;48.526;9.044;2022-12-07T16:16:17;5.35;;;3.03;;
69083;SDS011;56185;48.526;9.044;2022-12-07T16:18:44;4.70;;;3.10;;
69083;SDS011;56185;48.526;9.044;2022-12-07T16:21:11;4.95;;;3.08;;
69083;SDS011;56185;48.526;9.044;2022-12-07T16:23:36;5.45;;;3.00;;
69083;SDS011;56185;48.526;9.044;2022-12-07T16:28:31;4.90;;;2.50;;
69083;SDS011;56185;48.526;9.044;2022-12-07T16:31:03;4.28;;;1.92;;
69083;SDS011;56185;48.526;9.044;2022-12-07T16:36:06;2.28;;;1.90;;
69083;SDS011;56185;48.526;9.044;2022-12-07T16:38:32;2.83;;;2.10;;
69083;SDS011;56185;48.526;9.044;2022-12-07T16:40:58;3.63;;;2.38;;
69083;SDS011;56185;48.526;9.044;2022-12-07T16:43:23;4.03;;;2.57;;